Time;durP1;ratioP1;P1;durP2;ratioP2;P2;SDS_P1;SDS_P2;PMS_P1;PMS_P2;Temp;Humidity;BMP_temperature;BMP_pressure;BME280_temperature;BME280_humidity;BME280_pressure;Samples;Min_cycle;Max_cycle;Signal;HPM_P1;HPM_P2
2022/04/23 00:00:10;;;;;;;9.95;7.30;;;;;;;9.90;73.36;100956.66;2080472;28;20058;-63
2022/04/23 00:01:16;;;;;;;13.38;8.20;;;;;;;9.88;73.75;100955.78;2081120;28;20034;-62
2022/04/23 00:02:17;;;;;;;10.95;7.78;;;;;;;9.86;74.34;100957.63;2079712;28;44186;-62
2022/04/23 00:03:19;;;;;;;10.93;7.90;;;;;;;9.84;74.60;100956.78;2080028;28;44476;-63
2022/04/23 00:04:21;;;;;;;9.27;7.65;;;;;;;9.80;73.85;100963.09;2079890;28;45673;-63
2022/04/23 00:05:23;;;;;;;13.35;8.73;;;;;;;9.82;74.36;100969.31;2079823;28;46059;-62
2022/04/23 00:06:24;;;;;;;11.32;7.53;;;;;;;9.78;74.27;100962.25;2079744;28;43455;-62
2022/04/23 00:07:26;;;;;;;9.82;7.50;;;;;;;9.74;74.35;100955.19;2079826;28;37583;-62
2022/04/23 00:08:28;;;;;;;11.45;8.18;;;;;;;9.75;74.54;100965.84;2071200;28;44995;-63
2022/04/23 00:09:29;;;;;;;10.63;7.95;;;;;;;9.73;75.01;100958.78;2079597;28;44138;-62
2022/04/23 00:10:31;;;;;;;12.98;8.00;;;;;;;9.71;74.88;100960.63;2079522;28;46332;-63
2022/04/23 00:11:33;;;;;;;10.57;7.57;;;;;;;9.68;74.98;100960.66;2080024;28;43298;-62
2022/04/23 00:12:34;;;;;;;10.88;8.00;;;;;;;9.66;75.35;100957.16;2078819;28;44659;-62
2022/04/23 00:13:38;;;;;;;11.95;7.38;;;;;;;9.65;75.45;100960.72;2080074;28;45513;-62
2022/04/23 00:14:39;;;;;;;12.38;8.10;;;;;;;9.67;74.85;100959.78;2079848;28;45169;-62
2022/04/23 00:15:43;;;;;;;10.82;7.43;;;;;;;9.65;75.14;100955.38;2080328;28;31752;-63
2022/04/23 00:16:47;;;;;;;12.50;7.93;;;;;;;9.68;75.59;100960.66;2079351;28;44793;-63
2022/04/23 00:17:49;;;;;;;11.57;7.90;;;;;;;9.69;74.73;100951.72;2080863;28;20045;-63
2022/04/23 00:18:51;;;;;;;16.50;8.43;;;;;;;9.68;74.77;100956.19;2079923;28;43348;-62
2022/04/23 00:19:54;;;;;;;10.90;8.40;;;;;;;9.68;75.70;100966.88;2087796;28;20068;-63
2022/04/23 00:20:58;;;;;;;11.77;8.10;;;;;;;9.66;74.92;100949.13;2087234;28;20060;-63
2022/04/23 00:21:59;;;;;;;10.90;7.47;;;;;;;9.66;74.95;100963.38;2079669;28;44647;-63
2022/04/23 00:23:02;;;;;;;10.73;7.93;;;;;;;9.67;75.35;100951.78;2079758;28;45610;-62
2022/04/23 00:24:05;;;;;;;9.20;7.70;;;;;;;9.70;74.82;100954.38;2087450;28;39568;-62
2022/04/23 00:25:07;;;;;;;15.68;8.13;;;;;;;9.68;75.70;100958.00;2086671;28;44925;-62
2022/04/23 00:26:09;;;;;;;11.00;7.75;;;;;;;9.68;75.65;100950.84;2080058;28;46509;-63
2022/04/23 00:27:11;;;;;;;11.68;7.55;;;;;;;9.67;75.24;100956.22;2079498;28;44467;-62
2022/04/23 00:28:17;;;;;;;12.50;8.20;;;;;;;9.67;75.82;100954.44;2079763;28;20961;-63
2022/04/23 00:29:18;;;;;;;10.63;7.88;;;;;;;9.68;75.77;100949.97;2079964;28;20837;-62
2022/04/23 00:30:20;;;;;;;11.00;7.72;;;;;;;9.68;75.19;100955.31;2080414;28;45292;-63
2022/04/23 00:31:22;;;;;;;12.02;8.07;;;;;;;9.68;75.91;100955.31;2079694;28;44063;-62
2022/04/23 00:32:23;;;;;;;14.00;7.82;;;;;;;9.68;75.53;100952.66;2079935;28;31329;-62
2022/04/23 00:33:25;;;;;;;11.90;7.85;;;;;;;9.69;75.68;100960.63;2079901;28;45691;-62
2022/04/23 00:34:28;;;;;;;11.02;8.27;;;;;;;9.68;76.04;100949.97;2079922;28;45122;-63
2022/04/23 00:35:30;;;;;;;10.27;7.70;;;;;;;9.69;75.88;100954.38;2079635;28;42981;-63
2022/04/23 00:36:32;;;;;;;14.52;8.32;;;;;;;9.67;75.94;100953.53;2079349;28;44286;-63
2022/04/23 00:37:34;;;;;;;13.88;8.30;;;;;;;9.67;75.51;100954.44;2078660;28;45039;-63
2022/04/23 00:38:40;;;;;;;11.77;8.00;;;;;;;9.67;75.65;100953.53;2079147;28;42896;-63
2022/04/23 00:39:42;;;;;;;16.02;8.50;;;;;;;9.64;75.42;100949.16;2079669;28;45333;-62
2022/04/23 00:40:44;;;;;;;13.15;8.00;;;;;;;9.63;75.76;100952.72;2079831;28;43766;-63
2022/04/23 00:41:46;;;;;;;11.63;8.13;;;;;;;9.63;76.09;100952.72;2079437;28;45227;-63
2022/04/23 00:42:54;;;;;;;9.52;7.20;;;;;;;9.61;76.11;100953.66;2087697;28;44428;-62
2022/04/23 00:43:56;;;;;;;16.52;8.70;;;;;;;9.60;76.50;100949.22;2078871;28;43275;-62
2022/04/23 00:44:58;;;;;;;11.40;8.38;;;;;;;9.57;76.38;100949.31;2079302;28;44831;-62
2022/04/23 00:46:00;;;;;;;11.73;7.90;;;;;;;9.54;76.43;100948.41;2079150;28;42140;-62
2022/04/23 00:47:02;;;;;;;15.45;8.90;;;;;;;9.55;76.11;100947.53;2079554;28;45443;-63
2022/04/23 00:48:05;;;;;;;10.15;8.10;;;;;;;9.51;76.77;100947.59;2079556;28;43257;-62
2022/04/23 00:49:07;;;;;;;11.70;8.02;;;;;;;9.52;76.84;100952.91;2079923;28;44140;-62
2022/04/23 00:50:10;;;;;;;12.35;8.25;;;;;;;9.52;76.57;100944.91;2079558;28;46402;-62
2022/04/23 00:51:12;;;;;;;12.88;7.97;;;;;;;9.50;77.32;100948.53;2080146;28;31332;-62
2022/04/23 00:52:13;;;;;;;12.20;8.43;;;;;;;9.47;76.55;100941.44;2080112;28;20402;-63
2022/04/23 00:53:15;;;;;;;14.55;7.82;;;;;;;9.47;77.16;100944.09;2078829;28;44943;-62
2022/04/23 00:54:19;;;;;;;11.10;8.02;;;;;;;9.43;77.64;100949.53;2079684;28;39467;-63
2022/04/23 00:55:20;;;;;;;14.18;8.77;;;;;;;9.45;77.45;100945.06;2079702;28;45124;-62
2022/04/23 00:56:23;;;;;;;13.15;8.40;;;;;;;9.42;77.33;100953.13;2086036;28;44511;-62
2022/04/23 00:57:26;;;;;;;10.13;8.40;;;;;;;9.40;77.21;100949.59;2086820;28;45403;-62
2022/04/23 00:58:28;;;;;;;10.48;7.80;;;;;;;9.39;77.46;100953.19;2079499;28;20598;-62
2022/04/23 00:59:31;;;;;;;11.43;8.10;;;;;;;9.39;77.46;100954.06;2079165;28;43349;-62
2022/04/23 01:00:33;;;;;;;9.95;8.13;;;;;;;9.39;77.49;100951.41;2078760;28;41215;-62
2022/04/23 01:01:35;;;;;;;11.05;8.38;;;;;;;9.36;77.33;100948.75;2078797;28;43806;-62
2022/04/23 01:02:37;;;;;;;11.38;8.35;;;;;;;9.43;78.09;100946.88;2079673;28;27787;-62
2022/04/23 01:03:39;;;;;;;15.77;8.90;;;;;;;9.39;77.64;100943.38;2079341;28;44991;-63
2022/04/23 01:04:41;;;;;;;15.25;8.82;;;;;;;9.43;77.94;100944.19;2079563;28;43226;-62
2022/04/23 01:05:44;;;;;;;12.52;8.15;;;;;;;9.46;77.25;100945.03;2079512;28;45239;-62
2022/04/23 01:06:46;;;;;;;10.68;7.85;;;;;;;9.44;76.80;100941.50;2079257;28;45665;-62
2022/04/23 01:07:52;;;;;;;11.38;8.30;;;;;;;9.47;76.91;100945.91;2080642;28;20037;-62
2022/04/23 01:08:54;;;;;;;10.48;8.30;;;;;;;9.44;76.61;100936.16;2086666;28;46482;-62
2022/04/23 01:09:56;;;;;;;10.90;8.35;;;;;;;9.49;76.81;100942.31;2087986;28;20138;-62
2022/04/23 01:10:57;;;;;;;9.48;7.68;;;;;;;9.49;76.81;100939.63;2079368;28;29431;-62
2022/04/23 01:11:59;;;;;;;11.60;8.32;;;;;;;9.53;76.74;100938.66;2079479;28;43502;-62
2022/04/23 01:13:02;;;;;;;9.50;8.38;;;;;;;9.54;76.41;100936.84;2079215;28;45144;-62
2022/04/23 01:14:05;;;;;;;11.30;8.10;;;;;;;9.50;76.81;100940.50;2079643;28;40251;-62
2022/04/23 01:15:09;;;;;;;9.95;7.75;;;;;;;9.53;76.16;100940.47;2087087;28;44572;-63
2022/04/23 01:16:11;;;;;;;13.52;8.05;;;;;;;9.51;76.35;100937.81;2086413;28;47049;-63
2022/04/23 01:17:13;;;;;;;10.50;7.75;;;;;;;9.61;75.95;100937.63;2078947;28;46703;-62
2022/04/23 01:18:16;;;;;;;11.95;8.07;;;;;;;9.63;75.33;100941.16;2086798;28;44654;-62
2022/04/23 01:19:18;;;;;;;8.48;7.60;;;;;;;9.65;75.44;100940.19;2086545;28;44023;-63
2022/04/23 01:20:20;;;;;;;14.13;7.63;;;;;;;9.68;74.30;100939.28;2079215;28;44509;-62
2022/04/23 01:21:22;;;;;;;9.20;8.00;;;;;;;9.72;74.88;100946.31;2079943;28;20030;-62
2022/04/23 01:22:24;;;;;;;8.30;7.18;;;;;;;9.69;74.40;100938.34;2079193;28;46221;-62
2022/04/23 01:23:26;;;;;;;8.90;7.60;;;;;;;9.78;74.55;100940.88;2079468;28;44631;-62
2022/04/23 01:24:27;;;;;;;10.25;7.35;;;;;;;9.77;73.86;100939.09;2079098;28;45522;-62
2022/04/23 01:25:33;;;;;;;8.48;7.55;;;;;;;9.74;74.53;100939.16;2079430;28;44599;-63
2022/04/23 01:26:34;;;;;;;9.63;7.55;;;;;;;9.76;74.14;100953.34;2079263;28;43767;-62
2022/04/23 01:27:40;;;;;;;8.35;7.22;;;;;;;9.74;73.63;100957.84;2078865;28;46127;-63
2022/04/23 01:28:42;;;;;;;9.75;7.53;;;;;;;9.72;74.27;100941.84;2079208;28;44608;-63
2022/04/23 01:29:45;;;;;;;10.20;7.45;;;;;;;9.67;74.04;100940.19;2080099;28;20042;-62
2022/04/23 01:30:57;;;;;;;10.15;7.80;;;;;;;9.64;73.58;100938.47;2079323;28;35766;-62
2022/04/23 01:31:58;;;;;;;8.63;7.28;;;;;;;9.66;74.26;100954.47;2078917;28;43235;-63
2022/04/23 01:33:00;;;;;;;11.65;7.95;;;;;;;9.64;73.84;100942.94;2078874;28;43914;-62
2022/04/23 01:34:02;;;;;;;8.88;7.57;;;;;;;9.58;73.52;100945.69;2079252;28;44578;-64
2022/04/23 01:35:05;;;;;;;10.55;8.52;;;;;;;9.57;73.75;100942.16;2078268;28;45432;-62
2022/04/23 01:36:07;;;;;;;9.55;7.55;;;;;;;9.54;74.46;100945.75;2079088;28;38309;-62
2022/04/23 01:37:09;;;;;;;10.38;7.80;;;;;;;9.51;73.63;100951.19;2086755;28;44261;-62
2022/04/23 01:38:11;;;;;;;8.95;8.05;;;;;;;9.48;73.62;100943.19;2078976;28;44431;-62
2022/04/23 01:39:13;;;;;;;8.82;7.88;;;;;;;9.46;74.63;100942.34;2079532;28;45593;-62
2022/04/23 01:40:17;;;;;;;10.02;7.65;;;;;;;9.44;73.28;100949.53;2079103;28;44238;-62
2022/04/23 01:41:19;;;;;;;10.82;8.10;;;;;;;9.43;74.58;100950.41;2079188;28;42717;-63
2022/04/23 01:42:21;;;;;;;9.05;8.15;;;;;;;9.42;74.19;100953.13;2079137;28;43108;-63
2022/04/23 01:43:22;;;;;;;8.85;7.80;;;;;;;9.38;73.57;100941.59;2078823;28;44733;-63
2022/04/23 01:44:24;;;;;;;8.30;7.50;;;;;;;9.38;73.39;100946.94;2078531;28;44728;-63
2022/04/23 01:45:26;;;;;;;8.48;7.68;;;;;;;9.41;73.67;100954.03;2086876;28;44841;-63
2022/04/23 01:46:28;;;;;;;9.75;7.80;;;;;;;9.40;73.13;100944.25;2086804;28;46558;-62
2022/04/23 01:47:29;;;;;;;10.02;7.88;;;;;;;9.35;73.34;100947.91;2086565;28;44550;-64
2022/04/23 01:48:31;;;;;;;9.25;8.27;;;;;;;9.33;74.06;100949.72;2079268;28;45302;-62
2022/04/23 01:49:33;;;;;;;10.98;7.70;;;;;;;9.32;73.15;100941.72;2078466;28;46749;-62
2022/04/23 01:50:34;;;;;;;9.50;7.53;;;;;;;9.30;73.51;100948.88;2078532;28;45480;-63
2022/04/23 01:51:36;;;;;;;9.52;8.27;;;;;;;9.29;73.47;100939.09;2079181;28;40037;-63
2022/04/23 01:52:40;;;;;;;9.85;8.15;;;;;;;9.31;72.89;100945.28;2080031;28;21036;-63
2022/04/23 01:53:42;;;;;;;8.85;7.43;;;;;;;9.29;74.08;100939.09;2078973;28;45183;-63
2022/04/23 01:54:43;;;;;;;9.90;7.80;;;;;;;9.30;73.54;100947.09;2079021;28;45821;-63
2022/04/23 01:55:45;;;;;;;9.43;7.63;;;;;;;9.29;72.94;100945.31;2078978;28;45054;-62
2022/04/23 01:56:47;;;;;;;8.90;8.00;;;;;;;9.29;73.18;100942.63;2078708;28;31094;-62
2022/04/23 01:57:49;;;;;;;8.27;7.32;;;;;;;9.32;72.96;100957.75;2078512;28;41959;-62
2022/04/23 01:58:50;;;;;;;9.73;8.13;;;;;;;9.28;72.89;100940.03;2079361;28;45434;-62
2022/04/23 01:59:52;;;;;;;11.57;8.88;;;;;;;9.26;72.89;100950.72;2079826;28;27105;-63
2022/04/23 02:00:54;;;;;;;10.27;7.55;;;;;;;9.22;72.66;100951.66;2079167;28;44668;-63
2022/04/23 02:01:58;;;;;;;8.93;8.02;;;;;;;9.18;73.39;100955.31;2079714;28;37559;-62
2022/04/23 02:03:00;;;;;;;9.10;8.05;;;;;;;9.16;72.89;100950.00;2078759;28;45844;-62
2022/04/23 02:04:02;;;;;;;9.55;7.72;;;;;;;9.15;73.63;100950.00;2079519;28;44100;-63
2022/04/23 02:05:06;;;;;;;11.30;8.68;;;;;;;9.18;72.70;100961.53;2078895;28;45334;-62
2022/04/23 02:06:08;;;;;;;9.38;7.70;;;;;;;9.18;73.09;100949.97;2078952;28;43481;-62
2022/04/23 02:07:10;;;;;;;12.55;8.15;;;;;;;9.16;73.56;100966.00;2078658;28;45701;-62
2022/04/23 02:08:16;;;;;;;8.88;8.05;;;;;;;9.15;73.47;100955.34;2079248;28;43348;-62
2022/04/23 02:09:18;;;;;;;9.57;8.07;;;;;;;9.15;72.76;100956.25;2079024;28;45491;-62
2022/04/23 02:10:20;;;;;;;9.00;8.10;;;;;;;9.15;72.48;100953.59;2079138;28;47759;-62
2022/04/23 02:11:24;;;;;;;9.00;7.68;;;;;;;9.14;73.34;100956.28;2079233;28;33855;-61
2022/04/23 02:12:26;;;;;;;9.93;8.63;;;;;;;9.10;72.83;100951.91;2078654;28;44253;-62
2022/04/23 02:13:28;;;;;;;9.77;8.20;;;;;;;9.08;73.29;100953.69;2078842;28;45829;-62
2022/04/23 02:14:29;;;;;;;9.10;8.20;;;;;;;9.06;72.55;100961.75;2078822;28;42754;-62
2022/04/23 02:15:31;;;;;;;9.23;8.18;;;;;;;9.05;72.97;100959.97;2078716;28;46191;-62
2022/04/23 02:16:33;;;;;;;9.15;8.07;;;;;;;9.03;72.41;100959.13;2080175;28;20127;-63
2022/04/23 02:17:40;;;;;;;11.55;8.65;;;;;;;9.03;72.94;100967.13;2077714;28;43388;-62
2022/04/23 02:18:42;;;;;;;10.60;8.63;;;;;;;9.02;72.21;100962.69;2079210;28;45160;-63
2022/04/23 02:19:44;;;;;;;9.20;8.30;;;;;;;8.99;72.90;100952.09;2086292;28;44186;-63
2022/04/23 02:20:45;;;;;;;12.15;8.30;;;;;;;9.00;72.16;100960.97;2079065;28;44745;-62
2022/04/23 02:21:48;;;;;;;9.25;8.02;;;;;;;8.98;72.15;100947.63;2078984;28;42953;-63
2022/04/23 02:22:49;;;;;;;8.95;8.05;;;;;;;9.00;72.87;100959.16;2079122;28;45694;-62
2022/04/23 02:23:54;;;;;;;9.25;8.07;;;;;;;9.00;71.93;100951.16;2078767;28;46691;-63
2022/04/23 02:24:56;;;;;;;8.90;7.97;;;;;;;9.00;72.05;100952.94;2086530;28;43120;-62
2022/04/23 02:25:58;;;;;;;9.32;8.43;;;;;;;8.98;71.70;100953.84;2086640;28;42401;-63
2022/04/23 02:27:00;;;;;;;9.40;8.40;;;;;;;8.98;72.65;100958.31;2078992;28;45982;-62
2022/04/23 02:28:03;;;;;;;8.82;7.97;;;;;;;8.98;71.78;100958.31;2079074;28;45387;-62
2022/04/23 02:29:05;;;;;;;11.18;8.77;;;;;;;8.96;72.08;100954.78;2078995;28;40322;-63
2022/04/23 02:30:09;;;;;;;9.38;8.35;;;;;;;8.94;71.93;100952.16;2079268;28;43067;-62
2022/04/23 02:31:10;;;;;;;9.43;7.88;;;;;;;8.92;72.04;100950.41;2078462;28;45417;-63
2022/04/23 02:32:12;;;;;;;8.90;8.00;;;;;;;8.90;72.44;100947.75;2078673;28;46082;-62
2022/04/23 02:33:16;;;;;;;9.45;8.45;;;;;;;8.90;71.34;100949.53;2079949;28;20037;-63
2022/04/23 02:34:21;;;;;;;9.07;8.18;;;;;;;8.93;72.14;100950.38;2080078;28;20161;-63
2022/04/23 02:35:22;;;;;;;9.45;8.25;;;;;;;8.93;71.18;100961.03;2079327;28;39933;-63
2022/04/23 02:36:24;;;;;;;9.55;8.57;;;;;;;8.91;71.93;100962.00;2078362;28;45127;-63
2022/04/23 02:37:32;;;;;;;9.60;7.68;;;;;;;8.92;71.77;100956.63;2078326;28;37048;-63
2022/04/23 02:38:40;;;;;;;10.05;8.45;;;;;;;8.95;71.98;100947.66;2077992;28;44123;-63
2022/04/23 02:39:43;;;;;;;9.50;8.23;;;;;;;8.91;71.66;100953.97;2086587;28;45320;-63
2022/04/23 02:40:44;;;;;;;10.43;8.25;;;;;;;8.90;70.89;100960.22;2085588;28;43037;-63
2022/04/23 02:41:46;;;;;;;9.48;8.13;;;;;;;8.94;71.41;100961.94;2078786;28;44278;-63
2022/04/23 02:42:50;;;;;;;8.98;8.07;;;;;;;8.89;71.33;100967.34;2087305;28;20034;-63
2022/04/23 02:43:54;;;;;;;9.35;8.35;;;;;;;8.84;71.70;100958.53;2086123;28;45419;-63
2022/04/23 02:45:00;;;;;;;9.13;8.13;;;;;;;8.81;71.42;100960.34;2086252;28;43290;-63
2022/04/23 02:46:02;;;;;;;10.50;8.27;;;;;;;8.78;72.46;100962.19;2087666;28;20041;-63
2022/04/23 02:47:05;;;;;;;9.38;8.50;;;;;;;8.80;71.93;100967.50;2086457;28;45205;-63
2022/04/23 02:48:07;;;;;;;11.32;8.60;;;;;;;8.78;71.50;100955.97;2085947;28;46381;-63
2022/04/23 02:49:10;;;;;;;10.93;7.85;;;;;;;8.80;71.31;100962.16;2079247;28;21056;-63
2022/04/23 02:50:14;;;;;;;9.05;8.15;;;;;;;8.79;71.33;100957.72;2079190;28;28464;-63
2022/04/23 02:51:16;;;;;;;9.43;8.45;;;;;;;8.79;72.22;100963.06;2078927;28;44806;-63
2022/04/23 02:52:18;;;;;;;10.13;8.02;;;;;;;8.77;72.06;100956.84;2078453;28;43738;-63
2022/04/23 02:53:19;;;;;;;10.20;8.70;;;;;;;8.78;71.06;100961.31;2078822;28;46280;-63
2022/04/23 02:54:21;;;;;;;9.05;8.15;;;;;;;8.73;71.85;100953.34;2078943;28;44431;-64
2022/04/23 02:55:26;;;;;;;11.48;8.40;;;;;;;8.73;71.26;100966.69;2078837;28;45615;-63
2022/04/23 02:56:28;;;;;;;9.98;7.60;;;;;;;8.72;71.93;100954.28;2086294;28;47228;-63
2022/04/23 02:57:32;;;;;;;9.52;8.50;;;;;;;8.71;71.14;100960.50;2077981;28;44157;-63
2022/04/23 02:58:34;;;;;;;10.20;8.18;;;;;;;8.70;71.81;100968.53;2078158;28;44225;-63
2022/04/23 02:59:36;;;;;;;9.93;8.40;;;;;;;8.68;71.67;100967.69;2087815;28;20134;-63
2022/04/23 03:00:42;;;;;;;8.70;7.80;;;;;;;8.70;71.88;100974.75;2086290;28;45032;-63
2022/04/23 03:01:44;;;;;;;10.90;8.48;;;;;;;8.67;71.07;100953.47;2078668;28;44307;-63
2022/04/23 03:02:47;;;;;;;8.80;7.90;;;;;;;8.64;71.35;100964.16;2078907;28;43587;-62
2022/04/23 03:03:54;;;;;;;9.32;8.25;;;;;;;8.59;71.71;100966.88;2078377;28;46149;-63
2022/04/23 03:04:55;;;;;;;9.40;7.88;;;;;;;8.59;71.55;100966.00;2078597;28;44543;-63
2022/04/23 03:05:57;;;;;;;10.10;8.35;;;;;;;8.58;71.32;100969.59;2079159;28;45490;-63
2022/04/23 03:06:58;;;;;;;9.07;8.02;;;;;;;8.61;71.47;100964.19;2078751;28;45143;-62
2022/04/23 03:08:02;;;;;;;11.43;8.10;;;;;;;8.57;71.54;100962.50;2078687;28;42279;-63
2022/04/23 03:09:04;;;;;;;10.93;8.63;;;;;;;8.60;71.57;100962.47;2078753;28;45305;-62
2022/04/23 03:10:10;;;;;;;11.20;7.97;;;;;;;8.59;71.96;100968.69;2078866;28;45687;-63
2022/04/23 03:11:11;;;;;;;8.93;8.02;;;;;;;8.58;71.17;100973.16;2078789;28;44246;-62
2022/04/23 03:12:16;;;;;;;9.63;8.30;;;;;;;8.56;71.34;100971.38;2079643;28;20074;-63
2022/04/23 03:13:17;;;;;;;10.25;8.45;;;;;;;8.58;71.79;100964.28;2078860;28;43470;-62
2022/04/23 03:14:21;;;;;;;10.23;8.02;;;;;;;8.55;72.14;100964.31;2078944;28;44934;-62
2022/04/23 03:15:28;;;;;;;9.57;8.60;;;;;;;8.53;71.50;100972.31;2078671;28;45798;-63
2022/04/23 03:16:30;;;;;;;9.55;7.97;;;;;;;8.50;71.48;100956.34;2078361;28;45007;-63
2022/04/23 03:17:32;;;;;;;8.98;8.07;;;;;;;8.49;71.38;100959.03;2078673;28;46127;-62
2022/04/23 03:18:34;;;;;;;11.05;8.95;;;;;;;8.46;71.41;100964.44;2079961;28;20049;-63
2022/04/23 03:19:35;;;;;;;9.98;8.98;;;;;;;8.43;72.03;100964.47;2079195;28;44192;-63
2022/04/23 03:20:42;;;;;;;9.20;8.30;;;;;;;8.45;72.06;100962.66;2081068;28;28393;-62
2022/04/23 03:21:43;;;;;;;9.68;8.18;;;;;;;8.41;71.43;100968.00;2079666;28;45319;-62
2022/04/23 03:22:45;;;;;;;9.20;8.30;;;;;;;8.44;71.49;100967.13;2080493;28;44218;-63
2022/04/23 03:23:47;;;;;;;9.60;8.23;;;;;;;8.43;71.62;100964.47;2080437;28;44441;-62
2022/04/23 03:24:49;;;;;;;9.55;8.18;;;;;;;8.35;72.12;100962.75;2080304;28;45823;-62
2022/04/23 03:25:51;;;;;;;10.70;8.88;;;;;;;8.34;72.30;100960.97;2080117;28;45721;-62
2022/04/23 03:26:56;;;;;;;10.00;9.00;;;;;;;8.35;72.43;100962.75;2081025;28;20030;-63
2022/04/23 03:28:00;;;;;;;10.15;8.52;;;;;;;8.35;72.14;100956.56;2080275;28;41180;-63
2022/04/23 03:29:03;;;;;;;9.27;8.05;;;;;;;8.32;72.21;100961.91;2088346;28;42596;-62
2022/04/23 03:30:06;;;;;;;9.10;8.10;;;;;;;8.33;72.04;100961.91;2086623;28;44316;-63
2022/04/23 03:31:11;;;;;;;10.18;8.57;;;;;;;8.31;71.79;100955.72;2080023;28;46483;-63
2022/04/23 03:32:13;;;;;;;9.45;8.45;;;;;;;8.27;72.44;100959.28;2088092;28;29294;-62
2022/04/23 03:33:16;;;;;;;10.90;9.30;;;;;;;8.26;72.18;100962.88;2086979;28;45318;-62
2022/04/23 03:34:20;;;;;;;10.18;8.00;;;;;;;8.28;72.81;100961.06;2080154;28;42003;-63
2022/04/23 03:35:22;;;;;;;9.15;8.25;;;;;;;8.28;72.76;100963.75;2087582;28;44313;-63
2022/04/23 03:36:23;;;;;;;10.98;8.38;;;;;;;8.23;71.99;100955.78;2086682;28;44965;-63
2022/04/23 03:37:25;;;;;;;10.65;8.32;;;;;;;8.20;72.62;100960.28;2080154;28;27222;-63
2022/04/23 03:38:32;;;;;;;9.55;8.55;;;;;;;8.14;73.01;100966.56;2079768;28;43079;-63
2022/04/23 03:39:33;;;;;;;9.27;8.15;;;;;;;8.12;73.22;100965.72;2079853;28;45708;-63
2022/04/23 03:40:36;;;;;;;9.95;8.73;;;;;;;8.13;72.94;100966.59;2079922;28;43924;-63
2022/04/23 03:41:37;;;;;;;10.55;8.75;;;;;;;8.16;72.70;100969.22;2079787;28;41772;-63
2022/04/23 03:42:40;;;;;;;10.48;9.23;;;;;;;8.13;73.09;100977.25;2079619;28;43317;-63
2022/04/23 03:43:42;;;;;;;9.93;8.65;;;;;;;8.10;73.02;100964.00;2080179;28;44431;-63
2022/04/23 03:44:44;;;;;;;10.05;8.40;;;;;;;8.06;73.34;100976.47;2080181;28;28380;-63
2022/04/23 03:45:47;;;;;;;9.95;8.65;;;;;;;8.05;73.14;100965.81;2081041;28;20112;-62
2022/04/23 03:46:48;;;;;;;9.57;8.57;;;;;;;8.02;73.28;100969.38;2079659;28;46625;-63
2022/04/23 03:47:54;;;;;;;11.90;9.38;;;;;;;8.00;73.81;100961.44;2080165;28;42534;-63
2022/04/23 03:48:56;;;;;;;10.05;8.20;;;;;;;7.98;73.61;100965.00;2079956;28;45326;-63
2022/04/23 03:50:04;;;;;;;10.00;9.00;;;;;;;7.98;73.79;100967.66;2080182;28;44615;-63
2022/04/23 03:51:06;;;;;;;9.60;8.60;;;;;;;7.98;73.43;100971.22;2087731;28;32910;-63
2022/04/23 03:52:10;;;;;;;9.65;8.30;;;;;;;8.02;73.31;100964.06;2086568;28;44648;-63
2022/04/23 03:53:13;;;;;;;10.13;8.90;;;;;;;7.99;73.80;100965.00;2079773;28;44643;-63
2022/04/23 03:54:16;;;;;;;11.10;8.82;;;;;;;7.97;73.48;100971.25;2079279;28;44088;-63
2022/04/23 03:55:18;;;;;;;10.20;9.20;;;;;;;7.96;73.73;100974.81;2079888;28;46022;-63
2022/04/23 03:56:20;;;;;;;10.32;8.23;;;;;;;7.95;73.54;100967.69;2087960;28;38775;-62
2022/04/23 03:57:24;;;;;;;10.05;8.35;;;;;;;7.92;73.41;100973.97;2087518;28;35003;-63
2022/04/23 03:58:25;;;;;;;9.70;8.63;;;;;;;7.92;73.28;100971.28;2079349;28;46134;-63
2022/04/23 03:59:30;;;;;;;10.52;8.68;;;;;;;7.94;73.29;100977.47;2081074;28;20033;-63
2022/04/23 04:00:32;;;;;;;10.07;8.40;;;;;;;7.94;73.67;100964.16;2080045;28;45150;-62
2022/04/23 04:01:34;;;;;;;10.07;8.75;;;;;;;7.96;73.73;100975.69;2079874;28;36519;-63
2022/04/23 04:02:36;;;;;;;10.10;8.48;;;;;;;7.91;73.77;100972.19;2080220;28;45320;-63
2022/04/23 04:03:37;;;;;;;9.05;8.10;;;;;;;7.93;73.73;100970.41;2079942;28;45923;-63
2022/04/23 04:04:41;;;;;;;10.10;8.70;;;;;;;7.93;74.01;100973.06;2080843;28;21893;-63
2022/04/23 04:05:43;;;;;;;10.13;9.00;;;;;;;7.89;73.80;100971.31;2088220;28;46465;-62
2022/04/23 04:06:45;;;;;;;8.93;8.02;;;;;;;7.88;74.40;100972.25;2086939;28;44380;-62
2022/04/23 04:07:47;;;;;;;9.70;8.70;;;;;;;7.86;74.18;100978.47;2079595;28;45139;-63
2022/04/23 04:08:50;;;;;;;10.25;8.75;;;;;;;7.89;74.03;100973.13;2079905;28;46548;-63
2022/04/23 04:09:51;;;;;;;9.50;8.55;;;;;;;7.85;73.80;100966.94;2080019;28;45629;-63
2022/04/23 04:10:53;;;;;;;11.75;7.90;;;;;;;7.83;74.19;100979.41;2079791;28;46419;-63
2022/04/23 04:12:01;;;;;;;9.75;8.52;;;;;;;7.83;74.73;100969.63;2079526;28;42692;-63
2022/04/23 04:13:03;;;;;;;9.80;8.80;;;;;;;7.80;74.23;100974.97;2080525;28;44245;-63
2022/04/23 04:14:05;;;;;;;12.20;9.15;;;;;;;7.79;74.54;100981.22;2079143;28;46375;-63
2022/04/23 04:15:09;;;;;;;9.50;8.50;;;;;;;7.79;74.74;100972.34;2079858;28;40051;-63
2022/04/23 04:16:12;;;;;;;9.90;8.35;;;;;;;7.77;74.45;100971.44;2086971;28;45729;-63
2022/04/23 04:17:15;;;;;;;9.82;8.82;;;;;;;7.72;75.06;100979.53;2086759;28;46539;-63
2022/04/23 04:18:17;;;;;;;10.82;8.70;;;;;;;7.72;75.15;100981.31;2079196;28;45508;-64
2022/04/23 04:19:19;;;;;;;10.77;8.95;;;;;;;7.72;75.01;100987.50;2080018;28;46913;-63
2022/04/23 04:20:21;;;;;;;10.73;8.57;;;;;;;7.72;75.07;100981.31;2079249;28;42379;-63
2022/04/23 04:21:23;;;;;;;10.48;9.40;;;;;;;7.71;75.10;100980.41;2079613;28;44053;-63
2022/04/23 04:22:25;;;;;;;11.02;8.93;;;;;;;7.73;75.16;100980.38;2079080;28;45785;-62
2022/04/23 04:23:30;;;;;;;10.80;8.80;;;;;;;7.70;75.33;100983.06;2079880;28;45040;-63
2022/04/23 04:24:32;;;;;;;9.90;8.50;;;;;;;7.69;75.24;100984.88;2079051;28;39125;-63
2022/04/23 04:25:34;;;;;;;10.38;8.80;;;;;;;7.68;75.00;100985.78;2079660;28;42114;-63
2022/04/23 04:26:36;;;;;;;10.63;8.77;;;;;;;7.68;75.36;100988.44;2079047;28;44270;-63
2022/04/23 04:27:38;;;;;;;10.30;8.85;;;;;;;7.73;75.00;100991.06;2079397;28;45648;-63
2022/04/23 04:28:40;;;;;;;9.98;8.98;;;;;;;7.72;75.35;100989.31;2086737;28;44605;-63
2022/04/23 04:29:42;;;;;;;10.25;8.68;;;;;;;7.72;75.19;100986.63;2087860;28;34042;-63
2022/04/23 04:32:07;;;;;;;10.02;8.55;;;;;;;7.87;74.41;100978.47;2079222;28;44290;-63
2022/04/23 04:33:09;;;;;;;11.48;9.05;;;;;;;8.03;74.13;100990.72;2079712;28;44647;-62
2022/04/23 04:34:11;;;;;;;9.63;8.68;;;;;;;8.19;73.30;100986.06;2079880;28;43358;-63
2022/04/23 04:35:14;;;;;;;9.00;7.97;;;;;;;8.31;72.43;100987.72;2080471;28;20042;-62
2022/04/23 04:36:19;;;;;;;11.10;8.32;;;;;;;8.49;72.34;100980.38;2079500;28;38416;-63
2022/04/23 04:37:20;;;;;;;11.07;8.65;;;;;;;8.62;71.58;100983.78;2078827;28;43632;-63
2022/04/23 04:38:22;;;;;;;8.95;7.55;;;;;;;8.69;71.50;100981.00;2079679;28;46469;-63
2022/04/23 04:39:24;;;;;;;10.65;8.10;;;;;;;8.81;70.42;100966.59;2079614;28;42100;-63
2022/04/23 04:40:25;;;;;;;8.82;7.57;;;;;;;8.87;70.25;100989.66;2079421;28;45652;-63
2022/04/23 04:41:29;;;;;;;9.35;7.82;;;;;;;8.95;69.81;100988.63;2079671;28;44749;-63
2022/04/23 04:42:31;;;;;;;10.73;7.72;;;;;;;9.16;69.35;100979.38;2079505;28;45144;-62
2022/04/23 04:43:34;;;;;;;9.23;7.72;;;;;;;9.26;69.69;100985.47;2079983;28;32318;-63
2022/04/23 04:44:37;;;;;;;9.23;8.15;;;;;;;9.37;67.98;100977.25;2078659;28;42419;-63
2022/04/23 04:45:42;;;;;;;9.30;7.03;;;;;;;9.30;69.27;100986.28;2079927;28;20112;-63
2022/04/23 04:46:44;;;;;;;9.38;7.47;;;;;;;9.38;68.23;100989.69;2079664;28;45004;-63
2022/04/23 04:47:45;;;;;;;8.30;7.20;;;;;;;9.51;67.78;100985.91;2079432;28;32596;-63
2022/04/23 04:48:47;;;;;;;7.75;6.95;;;;;;;9.53;68.02;100983.22;2080113;28;27541;-63
2022/04/23 04:49:49;;;;;;;10.85;7.30;;;;;;;9.60;67.46;100981.31;2079367;28;44422;-63
2022/04/23 04:50:50;;;;;;;8.48;7.13;;;;;;;9.81;66.46;100978.22;2079349;28;42953;-64
2022/04/23 04:51:54;;;;;;;8.57;6.57;;;;;;;9.80;66.97;100981.81;2079421;28;31906;-63
2022/04/23 04:52:55;;;;;;;8.45;6.93;;;;;;;10.00;65.83;100983.22;2079002;28;43911;-63
2022/04/23 04:53:57;;;;;;;10.20;6.63;;;;;;;10.15;65.68;100982.91;2079410;28;43854;-63